Beaupre, Canada
Current Conditions -  °F | °C
As of 6:00 PM on Thursday 18 Dec 2014 (Local Time) from CYQB Reporting Station
Overcast Overcast  
Wind Chill: 24°   Ceiling: 12000
Heat Index: 30°   Visibility: 15mi
Dew Point: 23°   Wind: 6mph
Humidity: 75%   Direction: 320°NW
Pressure: 29.8"   Gusts: NA
Location:  47.05°N, 70.89°W
Report Text: CYQB 182300Z 32005KT 15SM FEW010 SCT075 OVC120 M01/M05 A2980 RMK SF1AC3AC5 SF TR SLP096
Loading
Personal Weather Stations






























Interactive Weather Map New forecast layout! Learn more

10-Day Weather Forecast

Advertisements
Track Severe Weather on mobile